createdAt,value
2016-05-15T00:00:22.905Z,0
2016-05-15T00:01:22.736Z,0
2016-05-15T00:02:22.723Z,0
2016-05-15T00:03:22.867Z,0
2016-05-15T00:04:22.714Z,0
2016-05-15T00:05:22.857Z,0
2016-05-15T00:06:22.688Z,0
2016-05-15T00:07:22.846Z,0
2016-05-15T00:08:22.848Z,0
2016-05-15T00:09:22.679Z,0
2016-05-15T00:10:22.824Z,0
2016-05-15T00:11:22.826Z,0
2016-05-15T00:12:22.813Z,0
2016-05-15T00:13:22.815Z,0
2016-05-15T00:14:23.506Z,0
2016-05-15T00:15:22.790Z,0
2016-05-15T00:16:23.995Z,0
2016-05-15T00:17:22.779Z,0
2016-05-15T00:18:22.767Z,0
2016-05-15T00:19:23.738Z,0
2016-05-15T00:20:22.756Z,0
2016-05-15T00:21:37.212Z,0
2016-05-15T00:22:22.589Z,0
2016-05-15T00:23:22.734Z,0
2016-05-15T00:24:22.720Z,0
2016-05-15T00:25:23.223Z,0
2016-05-15T00:26:23.132Z,0
2016-05-15T00:27:24.010Z,0
2016-05-15T00:28:22.590Z,0
2016-05-15T00:29:22.827Z,0
2016-05-15T00:30:24.377Z,0
2016-05-15T00:31:23.286Z,0
2016-05-15T00:32:22.680Z,0
2016-05-15T00:33:22.854Z,0
2016-05-15T00:34:23.013Z,0
2016-05-15T00:35:22.484Z,0
2016-05-15T00:36:22.487Z,0
2016-05-15T00:37:22.318Z,0
2016-05-15T00:38:22.617Z,0
2016-05-15T00:39:22.448Z,0
2016-05-15T00:40:22.607Z,0
2016-05-15T00:41:22.437Z,0
2016-05-15T00:42:22.440Z,0
2016-05-15T00:43:22.599Z,0
2016-05-15T00:44:22.571Z,0
2016-05-15T00:45:22.573Z,0
2016-05-15T00:46:22.561Z,0
2016-05-15T00:47:22.548Z,0
2016-05-15T00:48:22.394Z,0
2016-05-15T00:49:22.804Z,0
2016-05-15T00:50:22.540Z,0
2016-05-15T00:51:22.528Z,0
2016-05-15T00:52:22.514Z,0
2016-05-15T00:53:22.361Z,0
2016-05-15T00:54:22.347Z,0
2016-05-15T00:55:22.335Z,0
2016-05-15T00:56:22.494Z,0
2016-05-15T00:57:22.481Z,0
2016-05-15T00:58:22.327Z,0
2016-05-15T00:59:22.471Z,0
2016-05-15T01:00:22.317Z,0
2016-05-15T01:01:22.460Z,0
2016-05-15T01:02:22.291Z,0
2016-05-15T01:03:48.232Z,0
2016-05-15T01:04:22.138Z,0
2016-05-15T01:05:22.438Z,0
2016-05-15T01:06:22.440Z,0
2016-05-15T01:07:22.115Z,0
2016-05-15T01:08:22.414Z,0
2016-05-15T01:09:22.401Z,0
2016-05-15T01:10:22.091Z,0
2016-05-15T01:11:22.391Z,0
2016-05-15T01:12:22.379Z,0
2016-05-15T01:13:22.224Z,0
2016-05-15T01:14:22.212Z,0
2016-05-15T01:15:22.370Z,0
2016-05-15T01:16:22.357Z,0
2016-05-15T01:17:22.345Z,0
2016-05-15T01:18:22.206Z,0
2016-05-15T01:19:22.318Z,0
2016-05-15T01:20:22.353Z,0
2016-05-15T01:21:22.323Z,0
2016-05-15T01:22:22.327Z,0
2016-05-15T01:23:22.314Z,0
2016-05-15T01:24:22.301Z,0
2016-05-15T01:25:22.163Z,0
2016-05-15T01:26:22.291Z,0
2016-05-15T01:27:22.137Z,0
2016-05-15T01:28:22.280Z,0
2016-05-15T01:29:22.267Z,0
2016-05-15T01:30:21.958Z,0
2016-05-15T01:31:22.100Z,0
2016-05-15T01:32:21.932Z,0
2016-05-15T01:33:22.919Z,0
2016-05-15T01:34:24.299Z,0
2016-05-15T01:35:22.080Z,0
2016-05-15T01:36:22.224Z,0
2016-05-15T01:37:23.071Z,0
2016-05-15T01:38:22.354Z,0
2016-05-15T01:39:22.591Z,0
2016-05-15T01:40:36.377Z,0
2016-05-15T01:41:22.799Z,0
2016-05-15T01:42:25.273Z,0
2016-05-15T01:43:24.604Z,0
2016-05-15T01:44:23.729Z,0
2016-05-15T01:45:22.076Z,0
2016-05-15T01:46:22.875Z,0
2016-05-15T01:47:22.643Z,0
2016-05-15T01:48:23.068Z,0
2016-05-15T01:49:36.465Z,0
2016-05-15T01:50:22.137Z,0
2016-05-15T01:51:22.717Z,0
2016-05-15T01:52:22.798Z,0
2016-05-15T01:53:22.409Z,0
2016-05-15T01:54:22.163Z,0
2016-05-15T01:55:22.290Z,0
2016-05-15T01:56:22.090Z,0
2016-05-15T01:57:22.092Z,0
2016-05-15T01:58:22.080Z,0
2016-05-15T01:59:21.911Z,0
2016-05-15T02:00:22.069Z,0
2016-05-15T02:01:22.056Z,0
2016-05-15T02:02:21.903Z,0
2016-05-15T02:03:22.047Z,0
2016-05-15T02:04:22.080Z,0
2016-05-15T02:05:21.880Z,0
2016-05-15T02:06:22.038Z,0
2016-05-15T02:07:22.026Z,0
2016-05-15T02:08:22.013Z,0
2016-05-15T02:09:21.999Z,0
2016-05-15T02:10:22.003Z,0
2016-05-15T02:11:21.990Z,0
2016-05-15T02:12:21.993Z,0
2016-05-15T02:13:21.838Z,0
2016-05-15T02:14:21.827Z,0
2016-05-15T02:15:21.813Z,0
2016-05-15T02:16:21.971Z,0
2016-05-15T02:17:21.819Z,0
2016-05-15T02:18:21.977Z,0
2016-05-15T02:19:22.323Z,0
2016-05-15T02:20:21.937Z,0
2016-05-15T02:21:21.798Z,0
2016-05-15T02:22:21.926Z,0
2016-05-15T02:23:21.912Z,0
2016-05-15T02:24:21.915Z,0
2016-05-15T02:25:21.918Z,0
2016-05-15T02:26:21.920Z,0
2016-05-15T02:27:21.892Z,0
2016-05-15T02:28:21.754Z,0
2016-05-15T02:29:21.742Z,0
2016-05-15T02:30:21.884Z,0
2016-05-15T02:31:21.731Z,0
2016-05-15T02:32:21.702Z,0
2016-05-15T02:33:21.706Z,0
2016-05-15T02:34:21.724Z,0
2016-05-15T02:35:21.694Z,0
2016-05-15T02:36:21.838Z,0
2016-05-15T02:37:21.685Z,0
2016-05-15T02:38:21.844Z,0
2016-05-15T02:39:21.815Z,4
2016-05-15T02:40:21.818Z,4
2016-05-15T02:41:21.805Z,4
2016-05-15T02:42:21.823Z,0
2016-05-15T02:43:21.810Z,0
2016-05-15T02:44:21.797Z,4
2016-05-15T02:45:21.644Z,4
2016-05-15T02:46:21.771Z,8
2016-05-15T02:47:21.774Z,8
2016-05-15T02:48:21.761Z,12
2016-05-15T02:49:21.935Z,8
2016-05-15T02:50:21.767Z,16
2016-05-15T02:51:21.597Z,16
2016-05-15T02:52:23.304Z,20
2016-05-15T02:53:22.196Z,24
2016-05-15T02:54:22.073Z,24
2016-05-15T02:55:21.576Z,20
2016-05-15T02:56:22.658Z,20
2016-05-15T02:57:21.598Z,16
2016-05-15T02:58:22.194Z,16
2016-05-15T02:59:22.323Z,16
2016-05-15T03:00:21.559Z,16
2016-05-15T03:01:23.483Z,20
2016-05-15T03:02:22.814Z,20
2016-05-15T03:04:22.116Z,28
2016-05-15T03:05:21.760Z,32
2016-05-15T03:06:22.106Z,32
2016-05-15T03:07:22.641Z,36
2016-05-15T03:08:22.611Z,40
2016-05-15T03:09:35.696Z,44
2016-05-15T03:10:36.666Z,40
2016-05-15T03:11:22.229Z,44
2016-05-15T03:12:21.622Z,44
2016-05-15T03:13:21.516Z,48
2016-05-15T03:14:21.957Z,52
2016-05-15T03:15:21.615Z,52
2016-05-15T03:16:21.602Z,52
2016-05-15T03:17:21.433Z,52
2016-05-15T03:18:21.576Z,56
2016-05-15T03:19:21.282Z,68
2016-05-15T03:20:21.565Z,76
2016-05-15T03:21:21.429Z,88
2016-05-15T03:22:21.556Z,112
2016-05-15T03:23:21.089Z,136
2016-05-15T03:24:21.562Z,148
2016-05-15T03:25:21.548Z,144
2016-05-15T03:26:21.378Z,168
2016-05-15T03:27:21.538Z,188
2016-05-15T03:28:21.525Z,228
2016-05-15T03:29:21.512Z,296
2016-05-15T03:30:21.514Z,324
2016-05-15T03:31:21.517Z,360
2016-05-15T03:32:21.348Z,392
2016-05-15T03:33:21.507Z,432
2016-05-15T03:34:21.353Z,464
2016-05-15T03:35:21.341Z,488
2016-05-15T03:36:21.484Z,524
2016-05-15T03:37:21.471Z,580
2016-05-15T03:38:21.474Z,640
2016-05-15T03:39:21.461Z,712
2016-05-15T03:40:21.463Z,796
2016-05-15T03:41:21.450Z,900
2016-05-15T03:42:21.438Z,1012
2016-05-15T03:43:21.285Z,1112
2016-05-15T03:44:21.427Z,1204
2016-05-15T03:45:21.257Z,1224
2016-05-15T03:46:21.418Z,1216
2016-05-15T03:47:21.263Z,1140
2016-05-15T03:48:21.406Z,1136
2016-05-15T03:49:21.394Z,1212
2016-05-15T03:50:21.397Z,1388
2016-05-15T03:51:21.227Z,1380
2016-05-15T03:52:21.229Z,1364
2016-05-15T03:53:21.374Z,1496
2016-05-15T03:54:21.204Z,1784
2016-05-15T03:55:21.362Z,1936
2016-05-15T03:56:21.351Z,1848
2016-05-15T03:57:21.353Z,1916
2016-05-15T03:58:21.340Z,2032
2016-05-15T03:59:21.327Z,1936
2016-05-15T04:00:21.330Z,1844
2016-05-15T04:01:21.176Z,1760
2016-05-15T04:02:21.319Z,1724
2016-05-15T04:03:21.306Z,1884
2016-05-15T04:04:21.341Z,2252
2016-05-15T04:05:21.297Z,2748
2016-05-15T04:06:21.283Z,2932
2016-05-15T04:07:21.145Z,3024
2016-05-15T04:08:21.133Z,3156
2016-05-15T04:09:21.119Z,3312
2016-05-15T04:10:21.263Z,3224
2016-05-15T04:11:23.016Z,2880
2016-05-15T04:12:22.753Z,2212
2016-05-15T04:13:21.724Z,1604
2016-05-15T04:14:22.413Z,1392
2016-05-15T04:15:21.246Z,1520
2016-05-15T04:16:21.482Z,1844
2016-05-15T04:17:21.593Z,2136
2016-05-15T04:18:21.222Z,2364
2016-05-15T04:19:35.899Z,2784
2016-05-15T04:21:38.124Z,3288
2016-05-15T04:22:21.296Z,3620
2016-05-15T04:23:21.204Z,4044
2016-05-15T04:24:21.940Z,4376
2016-05-15T04:25:21.273Z,4732
2016-05-15T04:26:21.931Z,4996
2016-05-15T04:27:21.324Z,5736
2016-05-15T04:28:21.030Z,6500
2016-05-15T04:29:21.017Z,6168
2016-05-15T04:30:21.504Z,4672
2016-05-15T04:31:35.759Z,3252
2016-05-15T04:32:21.134Z,2244
2016-05-15T04:33:21.325Z,1640
2016-05-15T04:34:21.140Z,1536
2016-05-15T04:35:21.127Z,1496
2016-05-15T04:36:21.114Z,1532
2016-05-15T04:37:20.789Z,1656
2016-05-15T04:38:21.103Z,1912
2016-05-15T04:39:20.950Z,2648
2016-05-15T04:40:21.109Z,3464
2016-05-15T04:41:21.080Z,4620
2016-05-15T04:42:21.083Z,4992
2016-05-15T04:43:21.071Z,5092
2016-05-15T04:44:21.057Z,4296
2016-05-15T04:45:21.060Z,3232
2016-05-15T04:46:21.046Z,2704
2016-05-15T04:47:21.050Z,2512
2016-05-15T04:48:21.037Z,2660
2016-05-15T04:49:20.727Z,3628
2016-05-15T04:50:20.871Z,3396
2016-05-15T04:51:21.029Z,2660
2016-05-15T04:52:21.016Z,2464
2016-05-15T04:53:21.019Z,2076
2016-05-15T04:54:20.850Z,2316
2016-05-15T04:55:20.993Z,3164
2016-05-15T04:56:21.012Z,3852
2016-05-15T04:57:20.999Z,5400
2016-05-15T04:58:20.673Z,6004
2016-05-15T04:59:20.989Z,6056
2016-05-15T05:00:20.975Z,4960
2016-05-15T05:01:20.978Z,4364
2016-05-15T05:02:20.981Z,4844
2016-05-15T05:03:20.967Z,5300
2016-05-15T05:04:21.034Z,5076
2016-05-15T05:05:20.817Z,5044
2016-05-15T05:06:20.944Z,5028
2016-05-15T05:07:20.948Z,5036
2016-05-15T05:08:20.778Z,4796
2016-05-15T05:09:20.936Z,4448
2016-05-15T05:10:20.925Z,4180
2016-05-15T05:11:20.927Z,4156
2016-05-15T05:12:20.914Z,4380
2016-05-15T05:13:20.901Z,4424
2016-05-15T05:14:20.904Z,5004
2016-05-15T05:15:20.750Z,6280
2016-05-15T05:16:20.737Z,8016
2016-05-15T05:17:20.880Z,8076
2016-05-15T05:18:20.727Z,7940
2016-05-15T05:19:20.980Z,7408
2016-05-15T05:20:20.716Z,6392
2016-05-15T05:21:20.704Z,6136
2016-05-15T05:22:20.879Z,5404
2016-05-15T05:23:20.709Z,4328
2016-05-15T05:24:20.852Z,3932
2016-05-15T05:25:20.839Z,3408
2016-05-15T05:26:20.858Z,3140
2016-05-15T05:27:20.689Z,3220
2016-05-15T05:28:20.831Z,3156
2016-05-15T05:29:21.663Z,3100
2016-05-15T05:30:20.962Z,3040
2016-05-15T05:31:20.667Z,3212
2016-05-15T05:32:21.077Z,3316
2016-05-15T05:33:21.424Z,3180
2016-05-15T05:34:20.926Z,2936
2016-05-15T05:35:21.288Z,2788
2016-05-15T05:36:20.854Z,2720
2016-05-15T05:37:22.341Z,2796
2016-05-15T05:38:20.780Z,2992
2016-05-15T05:39:20.783Z,3188
2016-05-15T05:40:21.505Z,3380
2016-05-15T05:41:21.461Z,3528
2016-05-15T05:42:20.854Z,3564
2016-05-15T05:43:20.997Z,3580
2016-05-15T05:44:20.766Z,3612
2016-05-15T05:45:20.752Z,3616
2016-05-15T05:46:20.740Z,4104
2016-05-15T05:47:22.586Z,5088
2016-05-15T05:48:21.042Z,5764
2016-05-15T05:49:21.373Z,6272
2016-05-15T05:50:21.266Z,6316
2016-05-15T05:51:20.722Z,5836
2016-05-15T05:52:20.709Z,5928
2016-05-15T05:53:20.727Z,7192
2016-05-15T05:54:20.699Z,8328
2016-05-15T05:55:20.701Z,8676
2016-05-15T05:56:20.688Z,10112
2016-05-15T05:57:20.379Z,12624
2016-05-15T05:58:20.693Z,14256
2016-05-15T05:59:20.696Z,12156
2016-05-15T06:00:20.667Z,10108
2016-05-15T06:01:20.656Z,10624
2016-05-15T06:02:20.517Z,12764
2016-05-15T06:03:20.739Z,15644
2016-05-15T06:04:20.898Z,20672
2016-05-15T06:05:20.650Z,31104
2016-05-15T06:06:20.637Z,38176
2016-05-15T06:07:20.500Z,38464
2016-05-15T06:08:20.486Z,32416
2016-05-15T06:09:20.630Z,34976
2016-05-15T06:10:20.475Z,20704
2016-05-15T06:11:20.479Z,19872
2016-05-15T06:12:20.466Z,23712
2016-05-15T06:13:20.625Z,18432
2016-05-15T06:14:20.611Z,19008
2016-05-15T06:15:20.630Z,18464
2016-05-15T06:16:20.617Z,18400
2016-05-15T06:17:20.604Z,19584
2016-05-15T06:18:20.452Z,19904
2016-05-15T06:19:20.907Z,22048
2016-05-15T06:20:20.456Z,18368
2016-05-15T06:21:20.616Z,14220
2016-05-15T06:22:20.602Z,17376
2016-05-15T06:23:20.448Z,18656
2016-05-15T06:24:20.607Z,14148
2016-05-15T06:25:20.610Z,17344
2016-05-15T06:26:20.457Z,14716
2016-05-15T06:27:20.600Z,11956
2016-05-15T06:28:20.603Z,9052
2016-05-15T06:29:20.449Z,8744
2016-05-15T06:30:20.451Z,9640
2016-05-15T06:31:20.595Z,9920
2016-05-15T06:32:20.614Z,7788
2016-05-15T06:33:20.601Z,7492
2016-05-15T06:34:21.197Z,6816
2016-05-15T06:35:20.622Z,8280
2016-05-15T06:36:20.296Z,10220
2016-05-15T06:37:20.595Z,9964
2016-05-15T06:38:20.723Z,8656
2016-05-15T06:39:20.288Z,7856
2016-05-15T06:40:20.589Z,8920
2016-05-15T06:41:20.591Z,10064
2016-05-15T06:42:20.593Z,11576
2016-05-15T06:43:20.581Z,13424
2016-05-15T06:44:20.583Z,17504
2016-05-15T06:45:20.586Z,19520
2016-05-15T06:46:20.588Z,19744
2016-05-15T06:47:20.436Z,23232
2016-05-15T06:48:23.407Z,30944
2016-05-15T06:49:22.268Z,74752
2016-05-15T06:50:20.428Z,20192
2016-05-15T06:51:20.618Z,19232
2016-05-15T06:52:20.260Z,21664
2016-05-15T06:53:20.670Z,18400
2016-05-15T06:54:21.001Z,16160
2016-05-15T06:55:20.582Z,17984
2016-05-15T06:56:20.803Z,19232
2016-05-15T06:57:20.571Z,22496
2016-05-15T06:58:35.373Z,27840
2016-05-15T06:59:21.686Z,12908
2016-05-15T07:00:20.751Z,14448
2016-05-15T07:01:21.645Z,18720
2016-05-15T07:02:20.788Z,24832
2016-05-15T07:03:20.572Z,24512
2016-05-15T07:05:22.249Z,19648
2016-05-15T07:06:20.564Z,21024
2016-05-15T07:07:20.769Z,27072
2016-05-15T07:08:20.711Z,60576
2016-05-15T07:09:20.431Z,41184
2016-05-15T07:10:20.434Z,23168
2016-05-15T07:11:20.421Z,56352
2016-05-15T07:12:20.425Z,24864
2016-05-15T07:13:20.567Z,14912
2016-05-15T07:14:20.585Z,13648
2016-05-15T07:15:20.589Z,14552
2016-05-15T07:16:20.591Z,13772
2016-05-15T07:17:20.438Z,12772
2016-05-15T07:18:20.597Z,14700
2016-05-15T07:19:20.521Z,13880
2016-05-15T07:20:20.586Z,12376
2016-05-15T07:21:20.588Z,9692
2016-05-15T07:22:20.607Z,7248
2016-05-15T07:23:20.610Z,5880
2016-05-15T07:24:20.597Z,6368
2016-05-15T07:25:20.599Z,10332
2016-05-15T07:26:20.602Z,16128
2016-05-15T07:27:20.621Z,20704
2016-05-15T07:28:20.607Z,56640
2016-05-15T07:29:20.595Z,38272
2016-05-15T07:30:20.598Z,79552
2016-05-15T07:31:20.616Z,87104
2016-05-15T07:32:20.618Z,90240
2016-05-15T07:33:20.465Z,37088
2016-05-15T07:34:20.499Z,95200
2016-05-15T07:35:20.611Z,95968
2016-05-15T07:36:20.628Z,75232
2016-05-15T07:37:20.617Z,39648
2016-05-15T07:38:20.634Z,26112
2016-05-15T07:39:20.657Z,74080
2016-05-15T07:40:20.703Z,30848
2016-05-15T07:41:20.750Z,71200
2016-05-15T07:42:20.811Z,22624
2016-05-15T07:43:20.857Z,34720
2016-05-15T07:44:20.922Z,22624
2016-05-15T07:45:20.909Z,54496
2016-05-15T07:46:20.944Z,42112
2016-05-15T07:47:20.962Z,34880
2016-05-15T07:48:20.839Z,44864
2016-05-15T07:49:21.009Z,99392
2016-05-15T07:50:21.017Z,30880
2016-05-15T07:51:20.869Z,28736
2016-05-15T07:52:20.736Z,38112
2016-05-15T07:53:29.542Z,30816
2016-05-15T07:54:21.064Z,27616
2016-05-15T07:55:21.630Z,19328
2016-05-15T07:56:20.932Z,30400
2016-05-15T07:57:20.936Z,95776
2016-05-15T07:58:21.097Z,64576
2016-05-15T07:59:20.961Z,26816
2016-05-15T08:00:21.137Z,62272
2016-05-15T08:01:21.140Z,81440
2016-05-15T08:02:20.830Z,29408
2016-05-15T08:03:20.990Z,74496
2016-05-15T08:04:21.603Z,53632
2016-05-15T08:05:21.012Z,117888
2016-05-15T08:06:21.031Z,24000
2016-05-15T08:07:22.707Z,24608
2016-05-15T08:08:21.194Z,24704
2016-05-15T08:09:21.212Z,24416
2016-05-15T08:10:21.231Z,23904
2016-05-15T08:11:21.718Z,31712
2016-05-15T08:12:21.610Z,16096
2016-05-15T08:13:21.301Z,13680
2016-05-15T08:14:35.354Z,14428
2016-05-15T08:15:36.168Z,16800
2016-05-15T08:16:21.637Z,20384
2016-05-15T08:17:36.940Z,27936
2016-05-15T08:18:23.002Z,28160
2016-05-15T08:19:21.364Z,26528
2016-05-15T08:20:21.773Z,33280
2016-05-15T08:21:21.323Z,81632
2016-05-15T08:22:21.388Z,84032
2016-05-15T08:23:35.518Z,85504
2016-05-15T08:24:21.331Z,26784
2016-05-15T08:25:21.365Z,23744
2016-05-15T08:26:21.054Z,25120
2016-05-15T08:27:21.714Z,40672
2016-05-15T08:28:21.372Z,78144
2016-05-15T08:29:21.407Z,52800
2016-05-15T08:30:21.237Z,26784
2016-05-15T08:31:21.396Z,23360
2016-05-15T08:32:21.399Z,35360
2016-05-15T08:33:21.417Z,39328
2016-05-15T08:34:21.280Z,40640
2016-05-15T08:35:21.516Z,52608
2016-05-15T08:36:21.442Z,22272
2016-05-15T08:37:21.444Z,18720
2016-05-15T08:38:21.461Z,25248
2016-05-15T08:39:21.450Z,41856
2016-05-15T08:40:21.467Z,35296
2016-05-15T08:41:21.469Z,25856
2016-05-15T08:42:21.472Z,24800
2016-05-15T08:43:21.507Z,22240
2016-05-15T08:44:21.494Z,20288
2016-05-15T08:45:21.496Z,21120
2016-05-15T08:46:21.515Z,22592
2016-05-15T08:47:21.518Z,22464
2016-05-15T08:48:21.363Z,23136
2016-05-15T08:49:21.226Z,24480
2016-05-15T08:50:21.526Z,27104
2016-05-15T08:51:21.529Z,30624
2016-05-15T08:52:21.562Z,27744
2016-05-15T08:53:21.252Z,27360
2016-05-15T08:54:21.395Z,28416
2016-05-15T08:55:21.554Z,29376
2016-05-15T08:56:21.557Z,28992
2016-05-15T08:57:21.576Z,26208
2016-05-15T08:58:21.578Z,21120
2016-05-15T08:59:21.440Z,18528
2016-05-15T09:00:21.584Z,18592
2016-05-15T09:01:21.586Z,18528
2016-05-15T09:02:21.589Z,18272
2016-05-15T09:03:21.592Z,15872
2016-05-15T09:04:21.328Z,13216
2016-05-15T09:05:21.489Z,13000
2016-05-15T09:06:21.303Z,14412
2016-05-15T09:07:21.305Z,17376
2016-05-15T09:08:21.464Z,21664
2016-05-15T09:09:21.638Z,26816
2016-05-15T09:10:21.469Z,30592
2016-05-15T09:11:21.630Z,31968
2016-05-15T09:12:21.632Z,31168
2016-05-15T09:13:21.634Z,27488
2016-05-15T09:14:21.638Z,26400
2016-05-15T09:15:21.468Z,25504
2016-05-15T09:16:21.657Z,24832
2016-05-15T09:17:21.488Z,24384
2016-05-15T09:18:21.664Z,24160
2016-05-15T09:19:22.322Z,24640
2016-05-15T09:20:21.684Z,25568
2016-05-15T09:21:21.671Z,26304
2016-05-15T09:22:21.658Z,26752
2016-05-15T09:23:21.662Z,26496
2016-05-15T09:24:21.664Z,25824
2016-05-15T09:25:21.667Z,25600
2016-05-15T09:26:21.935Z,25568
2016-05-15T09:27:22.125Z,25024
2016-05-15T09:28:21.518Z,24864
2016-05-15T09:29:22.693Z,25824
2016-05-15T09:30:21.680Z,25856
2016-05-15T09:31:22.354Z,23872
2016-05-15T09:32:21.826Z,20416
2016-05-15T09:33:21.688Z,17408
2016-05-15T09:34:23.144Z,14836
2016-05-15T09:35:24.959Z,13332
2016-05-15T09:36:23.571Z,12220
2016-05-15T09:37:21.699Z,11008
2016-05-15T09:38:21.748Z,10428
2016-05-15T09:39:21.720Z,10636
2016-05-15T09:40:22.441Z,11240
2016-05-15T09:41:21.881Z,11056
2016-05-15T09:42:22.494Z,9628
2016-05-15T09:43:22.574Z,8144
2016-05-15T09:44:22.296Z,6968
2016-05-15T09:45:21.720Z,6516
2016-05-15T09:46:22.427Z,6528
2016-05-15T09:47:22.147Z,6452
2016-05-15T09:48:21.729Z,6416
2016-05-15T09:49:21.856Z,4732
2016-05-15T09:50:22.109Z,2916
2016-05-15T09:51:21.721Z,2272
2016-05-15T09:52:21.724Z,2384
2016-05-15T09:53:21.726Z,2472
2016-05-15T09:54:21.729Z,2684
2016-05-15T09:55:21.715Z,3164
2016-05-15T09:56:21.734Z,3548
2016-05-15T09:57:21.581Z,3820
2016-05-15T09:58:21.567Z,4216
2016-05-15T09:59:21.727Z,5036
2016-05-15T10:00:21.729Z,6236
2016-05-15T10:01:21.732Z,7660
2016-05-15T10:02:21.719Z,9680
2016-05-15T10:03:21.722Z,12460
2016-05-15T10:04:22.584Z,16160
2016-05-15T10:05:21.711Z,18880
2016-05-15T10:06:21.714Z,21152
2016-05-15T10:07:21.717Z,22432
2016-05-15T10:08:21.720Z,22784
2016-05-15T10:09:21.738Z,22944
2016-05-15T10:10:21.724Z,22912
2016-05-15T10:11:21.555Z,21952
2016-05-15T10:12:21.715Z,20800
2016-05-15T10:13:21.717Z,20288
2016-05-15T10:14:21.704Z,21536
2016-05-15T10:15:21.708Z,24640
2016-05-15T10:16:21.710Z,27264
2016-05-15T10:17:21.713Z,29248
2016-05-15T10:18:21.699Z,30400
2016-05-15T10:19:21.813Z,31520
2016-05-15T10:20:21.705Z,30368
2016-05-15T10:21:21.552Z,27424
2016-05-15T10:22:21.710Z,26464
2016-05-15T10:23:21.697Z,28352
2016-05-15T10:24:21.544Z,28448
2016-05-15T10:25:21.531Z,24672
2016-05-15T10:26:21.706Z,20576
2016-05-15T10:27:21.536Z,18176
2016-05-15T10:28:21.804Z,16896
2016-05-15T10:29:21.542Z,15256
2016-05-15T10:30:21.701Z,12400
2016-05-15T10:31:21.953Z,9652
2016-05-15T10:32:21.706Z,7732
2016-05-15T10:33:21.725Z,7176
2016-05-15T10:34:21.696Z,6948
2016-05-15T10:35:21.558Z,6468
2016-05-15T10:36:21.544Z,5944
2016-05-15T10:37:21.704Z,6764
2016-05-15T10:38:21.692Z,8920
2016-05-15T10:39:21.709Z,11568
2016-05-15T10:40:21.696Z,15160
2016-05-15T10:41:21.543Z,19456
2016-05-15T10:42:21.686Z,21728
2016-05-15T10:43:21.533Z,23392
2016-05-15T10:44:22.472Z,23968
2016-05-15T10:45:21.694Z,22880
2016-05-15T10:46:23.463Z,21920
2016-05-15T10:47:22.247Z,19616
2016-05-15T10:48:22.780Z,20928
2016-05-15T10:49:22.533Z,24544
2016-05-15T10:50:22.113Z,29664
2016-05-15T10:51:21.961Z,28256
2016-05-15T10:52:23.854Z,24128
2016-05-15T10:53:21.871Z,16800
2016-05-15T10:55:22.142Z,4428
2016-05-15T10:56:22.505Z,4620
2016-05-15T10:57:21.695Z,7720
2016-05-15T10:58:22.870Z,10984
2016-05-15T10:59:21.700Z,11488
2016-05-15T11:00:21.704Z,12688
2016-05-15T11:01:22.315Z,12876
2016-05-15T11:02:21.740Z,12076
2016-05-15T11:03:21.383Z,18432
2016-05-15T11:04:21.621Z,25056
2016-05-15T11:05:21.544Z,25952
2016-05-15T11:06:21.689Z,22944
2016-05-15T11:07:21.691Z,18752
2016-05-15T11:08:21.694Z,16448
2016-05-15T11:09:21.680Z,20160
2016-05-15T11:10:21.543Z,21280
2016-05-15T11:11:21.530Z,19040
2016-05-15T11:12:21.689Z,19840
2016-05-15T11:13:21.675Z,22144
2016-05-15T11:14:21.678Z,22624
2016-05-15T11:15:21.524Z,18464
2016-05-15T11:16:21.528Z,16512
2016-05-15T11:17:21.671Z,17568
2016-05-15T11:18:21.689Z,16832
2016-05-15T11:19:22.113Z,16448
2016-05-15T11:20:21.507Z,16576
2016-05-15T11:21:21.682Z,17632
2016-05-15T11:22:21.684Z,17056
2016-05-15T11:23:21.687Z,13772
2016-05-15T11:24:21.690Z,13288
2016-05-15T11:25:21.676Z,13460
2016-05-15T11:26:21.679Z,12068
2016-05-15T11:27:21.682Z,10520
2016-05-15T11:28:21.668Z,9656
2016-05-15T11:29:21.515Z,8800
2016-05-15T11:30:21.534Z,7956
2016-05-15T11:31:21.677Z,7684
2016-05-15T11:32:21.679Z,7508
2016-05-15T11:33:21.682Z,7408
2016-05-15T11:34:21.529Z,7516
2016-05-15T11:35:21.532Z,7816
2016-05-15T11:36:21.675Z,9548
2016-05-15T11:37:21.693Z,11868
2016-05-15T11:38:21.680Z,13788
2016-05-15T11:39:21.667Z,13508
2016-05-15T11:40:21.670Z,13252
2016-05-15T11:41:21.658Z,10684
2016-05-15T11:42:21.675Z,10020
2016-05-15T11:43:21.881Z,9892
2016-05-15T11:44:21.649Z,11536
2016-05-15T11:45:21.653Z,12700
2016-05-15T11:46:21.655Z,10704
2016-05-15T11:47:21.658Z,9248
2016-05-15T11:48:21.644Z,8484
2016-05-15T11:49:21.960Z,9256
2016-05-15T11:50:21.540Z,10688
2016-05-15T11:51:21.638Z,11288
2016-05-15T11:52:21.655Z,11340
2016-05-15T11:53:21.486Z,12104
2016-05-15T11:54:21.785Z,15780
2016-05-15T11:55:21.632Z,19872
2016-05-15T11:56:21.790Z,18048
2016-05-15T11:57:21.622Z,18368
2016-05-15T11:58:21.641Z,22080
2016-05-15T11:59:21.627Z,20608
2016-05-15T12:00:21.629Z,17920
2016-05-15T12:01:21.632Z,17920
2016-05-15T12:02:21.479Z,16544
2016-05-15T12:03:23.185Z,14988
2016-05-15T12:04:23.610Z,14764
2016-05-15T12:05:24.456Z,16096
2016-05-15T12:06:22.631Z,14684
2016-05-15T12:07:22.242Z,12136
2016-05-15T12:08:22.261Z,12144
2016-05-15T12:09:22.139Z,11848
2016-05-15T12:10:21.876Z,12432
2016-05-15T12:12:36.850Z,18080
2016-05-15T12:14:23.918Z,13156
2016-05-15T12:15:23.030Z,10624
2016-05-15T12:16:21.705Z,10756
2016-05-15T12:17:22.488Z,12648
2016-05-15T12:18:21.897Z,11552
2016-05-15T12:19:21.852Z,11432
2016-05-15T12:20:21.683Z,9936
2016-05-15T12:21:36.391Z,10192
2016-05-15T12:22:21.611Z,11824
2016-05-15T12:23:21.614Z,13436
2016-05-15T12:24:21.616Z,13056
2016-05-15T12:25:21.604Z,14492
2016-05-15T12:26:21.606Z,13884
2016-05-15T12:27:21.625Z,13932
2016-05-15T12:28:21.612Z,14752
2016-05-15T12:29:21.615Z,15044
2016-05-15T12:30:21.617Z,13364
2016-05-15T12:31:21.635Z,10992
2016-05-15T12:32:21.466Z,11324
2016-05-15T12:33:21.626Z,12172
2016-05-15T12:34:21.612Z,11244
2016-05-15T12:35:21.912Z,10568
2016-05-15T12:36:21.461Z,10056
2016-05-15T12:37:21.620Z,9364
2016-05-15T12:38:21.482Z,7864
2016-05-15T12:39:21.610Z,7496
2016-05-15T12:40:21.457Z,7428
2016-05-15T12:41:21.615Z,8436
2016-05-15T12:42:21.618Z,9948
2016-05-15T12:43:21.620Z,10340
2016-05-15T12:44:21.295Z,10620
2016-05-15T12:45:21.454Z,11288
2016-05-15T12:46:21.458Z,10564
2016-05-15T12:47:21.616Z,8640
2016-05-15T12:48:21.619Z,7764
2016-05-15T12:49:21.309Z,7836
2016-05-15T12:50:21.468Z,8100
2016-05-15T12:51:21.611Z,7772
2016-05-15T12:52:21.457Z,7052
2016-05-15T12:53:21.616Z,6836
2016-05-15T12:54:21.619Z,7832
2016-05-15T12:55:21.607Z,8100
2016-05-15T12:56:21.624Z,8244
2016-05-15T12:57:21.596Z,8012
2016-05-15T12:58:21.458Z,7760
2016-05-15T12:59:21.602Z,7620
2016-05-15T13:00:21.448Z,7352
2016-05-15T13:01:21.451Z,6308
2016-05-15T13:02:21.453Z,5352
2016-05-15T13:03:21.440Z,5092
2016-05-15T13:04:21.739Z,5524
2016-05-15T13:05:21.477Z,5652
2016-05-15T13:06:21.464Z,5920
2016-05-15T13:07:21.623Z,6716
2016-05-15T13:08:21.594Z,6768
2016-05-15T13:09:21.597Z,6848
2016-05-15T13:10:21.599Z,8072
2016-05-15T13:11:21.586Z,10016
2016-05-15T13:12:21.590Z,11632
2016-05-15T13:13:21.592Z,11300
2016-05-15T13:14:21.595Z,11092
2016-05-15T13:15:21.581Z,9536
2016-05-15T13:16:21.444Z,7916
2016-05-15T13:17:21.587Z,7252
2016-05-15T13:18:21.434Z,6888
2016-05-15T13:19:21.296Z,6728
2016-05-15T13:20:21.595Z,6720
2016-05-15T13:21:21.426Z,6868
2016-05-15T13:22:23.913Z,7200
2016-05-15T13:23:22.525Z,7508
2016-05-15T13:24:22.980Z,7456
2016-05-15T13:25:22.688Z,7640
2016-05-15T13:26:22.033Z,7784
2016-05-15T13:27:21.426Z,8244
2016-05-15T13:28:21.570Z,9304
2016-05-15T13:29:21.604Z,9768
2016-05-15T13:30:21.809Z,10936
2016-05-15T13:31:23.235Z,12288
2016-05-15T13:32:23.237Z,13144